Time;durP1;ratioP1;P1;durP2;ratioP2;P2;SDS_P1;SDS_P2;PMS_P1;PMS_P2;Temp;Humidity;BMP_temperature;BMP_pressure;BME280_temperature;BME280_humidity;BME280_pressure;Samples;Min_cycle;Max_cycle;Signal;HPM_P1;HPM_P2
2022/11/02 00:00:14;;;;;;;49.10;27.80;;;;;;;10.15;81.12;99216.56;85738;1315;22474;-73
2022/11/02 00:02:35;;;;;;;41.60;26.30;;;;;;;10.17;81.20;99217.02;85790;1315;99281;-75
2022/11/02 00:04:37;;;;;;;51.00;27.40;;;;;;;10.17;81.29;99220.15;85861;1296;22650;-74
2022/11/02 00:06:40;;;;;;;50.30;28.50;;;;;;;10.18;81.19;99218.36;85806;1300;25255;-75
2022/11/02 00:08:41;;;;;;;47.50;28.40;;;;;;;10.19;81.22;99220.79;85781;1297;99653;-76
2022/11/02 00:10:43;;;;;;;45.10;27.30;;;;;;;10.20;81.15;99218.81;85647;1299;22504;-73
2022/11/02 00:12:45;;;;;;;46.10;27.60;;;;;;;10.20;81.27;99215.31;85935;1296;24032;-73
2022/11/02 00:14:46;;;;;;;44.30;27.30;;;;;;;10.22;81.34;99217.00;85842;1292;99294;-73
2022/11/02 00:16:48;;;;;;;46.90;26.80;;;;;;;10.22;81.24;99214.49;85903;1290;22496;-73
2022/11/02 00:18:57;;;;;;;49.90;25.40;;;;;;;10.23;81.21;99214.45;85752;1296;22942;-73
2022/11/02 00:20:58;;;;;;;42.40;26.50;;;;;;;10.23;81.32;99211.12;85651;1297;99317;-74
2022/11/02 00:23:01;;;;;;;39.10;25.80;;;;;;;10.24;81.28;99211.63;85808;1289;22538;-73
2022/11/02 00:25:05;;;;;;;41.60;26.10;;;;;;;10.24;81.23;99216.37;85774;1293;25337;-74
2022/11/02 00:27:07;;;;;;;42.40;26.30;;;;;;;10.25;81.33;99217.73;85618;1294;99680;-74
2022/11/02 00:29:09;;;;;;;43.50;25.40;;;;;;;10.26;81.40;99217.84;85930;1286;24087;-73
2022/11/02 00:31:10;;;;;;;46.70;24.90;;;;;;;10.26;81.39;99220.00;85654;1291;99394;-73
2022/11/02 00:33:12;;;;;;;42.20;25.30;;;;;;;10.27;81.28;99215.39;85727;1292;22626;-74
2022/11/02 00:35:14;;;;;;;38.10;25.30;;;;;;;10.27;81.28;99216.77;85694;1293;25121;-73
2022/11/02 00:37:15;;;;;;;39.30;24.80;;;;;;;10.27;81.39;99216.94;85616;1290;99431;-72
2022/11/02 00:39:17;;;;;;;48.90;25.80;;;;;;;10.27;81.35;99214.69;85630;1293;25347;-73
2022/11/02 00:41:20;;;;;;;36.70;24.70;;;;;;;10.27;81.39;99217.63;85810;1290;22522;-74
2022/11/02 00:43:21;;;;;;;42.10;25.80;;;;;;;10.28;81.33;99220.39;85692;1285;99588;-73
2022/11/02 00:45:23;;;;;;;48.90;26.70;;;;;;;10.27;81.43;99216.75;85697;1297;22481;-73
2022/11/02 00:47:24;;;;;;;46.90;26.70;;;;;;;10.28;81.24;99220.06;85948;1294;25284;-74
2022/11/02 00:49:26;;;;;;;36.90;24.40;;;;;;;10.27;81.46;99223.07;85649;1290;100210;-73
2022/11/02 00:51:28;;;;;;;38.30;24.90;;;;;;;10.27;81.41;99223.27;85750;1289;23084;-74
2022/11/02 00:53:29;;;;;;;43.50;25.20;;;;;;;10.27;81.43;99226.23;85928;1296;22546;-73
2022/11/02 00:55:31;;;;;;;46.20;25.60;;;;;;;10.28;81.52;99228.33;85738;1296;99817;-73
2022/11/02 00:57:32;;;;;;;45.90;25.90;;;;;;;10.29;81.47;99227.24;85561;1299;22486;-73
2022/11/02 00:59:34;;;;;;;35.00;25.10;;;;;;;10.28;81.51;99224.45;85764;1299;22493;-73
2022/11/02 01:01:35;;;;;;;43.60;25.10;;;;;;;10.30;81.48;99224.73;85662;1297;99398;-73
2022/11/02 01:03:37;;;;;;;44.60;26.10;;;;;;;10.30;81.51;99221.92;85817;1290;22485;-73
2022/11/02 01:05:39;;;;;;;45.60;27.30;;;;;;;10.31;81.51;99223.09;85889;1290;22550;-73
2022/11/02 01:07:40;;;;;;;44.00;25.30;;;;;;;10.32;81.67;99222.35;85653;1299;98432;-72
2022/11/02 01:09:42;;;;;;;45.70;28.70;;;;;;;10.32;81.58;99223.06;85721;1299;25660;-73
2022/11/02 01:11:43;;;;;;;48.30;27.30;;;;;;;10.33;81.66;99218.63;85665;1289;25864;-73
2022/11/02 01:13:45;;;;;;;40.90;29.20;;;;;;;10.33;81.60;99218.98;85866;1291;99400;-73
2022/11/02 01:15:46;;;;;;;42.40;27.70;;;;;;;10.33;81.67;99218.62;85786;1291;22497;-74
2022/11/02 01:17:48;;;;;;;47.90;27.90;;;;;;;10.34;81.69;99218.60;85729;1290;24295;-72
2022/11/02 01:19:50;;;;;;;43.80;27.90;;;;;;;10.35;81.68;99217.84;85656;1287;99521;-74
2022/11/02 01:21:51;;;;;;;50.70;27.20;;;;;;;10.37;81.73;99217.42;85736;1292;22534;-73
2022/11/02 01:23:54;;;;;;;46.30;27.40;;;;;;;10.37;81.71;99213.38;85737;1290;22757;-73
2022/11/02 01:25:55;;;;;;;42.60;26.70;;;;;;;10.38;81.69;99214.05;85703;1292;99930;-73
2022/11/02 01:27:57;;;;;;;45.50;26.50;;;;;;;10.38;81.76;99215.27;85789;1296;24253;-73
2022/11/02 01:29:59;;;;;;;40.30;27.10;;;;;;;10.39;81.78;99215.92;85963;1287;25596;-73
2022/11/02 01:32:00;;;;;;;40.50;26.40;;;;;;;10.39;81.72;99214.16;85701;1295;99353;-74
2022/11/02 01:34:02;;;;;;;46.30;27.80;;;;;;;10.40;81.81;99214.67;85811;1296;22476;-74
2022/11/02 01:36:05;;;;;;;35.70;24.10;;;;;;;10.42;81.82;99218.13;85466;1293;22569;-73
2022/11/02 01:38:07;;;;;;;45.50;26.30;;;;;;;10.43;81.77;99217.02;85752;1290;98068;-74
2022/11/02 01:40:09;;;;;;;36.80;24.70;;;;;;;10.43;81.76;99212.09;85752;1287;22671;-73
2022/11/02 01:42:22;;;;;;;43.80;24.70;;;;;;;10.43;81.82;99212.95;85777;1291;23208;-73
2022/11/02 01:44:30;;;;;;;45.60;25.60;;;;;;;10.43;81.93;99210.84;85741;1291;99373;-74
2022/11/02 01:46:41;;;;;;;41.10;25.20;;;;;;;10.45;81.85;99216.58;85970;1291;22487;-74
2022/11/02 01:48:49;;;;;;;33.70;22.70;;;;;;;10.45;81.83;99211.81;85826;1283;22482;-73
2022/11/02 01:50:50;;;;;;;44.20;24.70;;;;;;;10.46;81.80;99211.61;85865;1287;100022;-72
2022/11/02 01:52:53;;;;;;;41.90;23.30;;;;;;;10.46;81.81;99215.98;85757;1297;24239;-73
2022/11/02 01:55:31;;;;;;;41.80;23.10;;;;;;;10.47;81.83;99215.61;85913;1286;25518;-74
2022/11/02 01:57:35;;;;;;;33.70;23.00;;;;;;;10.47;81.87;99212.94;85468;1302;22910;-72
2022/11/02 01:59:47;;;;;;;36.70;23.00;;;;;;;10.48;81.97;99214.84;85252;1295;22638;-74
2022/11/02 02:01:48;;;;;;;;;;;;;;;10.49;81.94;99210.40;85148;1296;99328;-72
2022/11/02 02:03:50;;;;;;;;;;;;;;;10.49;82.03;99212.14;85449;1290;24321;-72
2022/11/02 02:05:57;;;;;;;36.50;22.80;;;;;;;10.50;82.01;99213.35;85521;1296;22658;-73
2022/11/02 02:08:01;;;;;;;37.40;22.70;;;;;;;10.52;81.92;99213.61;85253;1296;99272;-73
2022/11/02 02:10:04;;;;;;;35.30;23.70;;;;;;;10.51;81.82;99210.88;85167;1299;22483;-73
2022/11/02 02:12:06;;;;;;;42.50;23.80;;;;;;;10.47;81.95;99203.45;85288;1295;22617;-73
2022/11/02 02:14:16;;;;;;;41.50;23.80;;;;;;;10.55;81.79;99219.45;85264;1294;100027;-73
2022/11/02 02:16:30;;;;;;;47.20;26.50;;;;;;;10.55;81.81;99216.29;85317;1295;22610;-73
2022/11/02 02:18:41;;;;;;;44.50;25.50;;;;;;;10.56;81.85;99220.80;85090;1297;22507;-73
2022/11/02 02:20:43;;;;;;;43.20;25.70;;;;;;;10.56;81.86;99216.58;85126;1295;99434;-72
2022/11/02 02:22:50;;;;;;;40.90;24.60;;;;;;;10.56;81.93;99215.88;85414;1297;22780;-73
2022/11/02 02:25:29;;;;;;;43.00;24.80;;;;;;;10.57;81.90;99216.56;85465;1296;22556;-73
2022/11/02 02:28:02;;;;;;;41.10;23.90;;;;;;;10.57;81.75;99217.25;85282;1295;22669;-75
2022/11/02 02:30:08;;;;;;;40.30;23.90;;;;;;;10.57;81.81;99220.42;85438;1296;24278;-74
2022/11/02 02:32:27;;;;;;;37.50;24.10;;;;;;;10.57;81.97;99219.19;85465;1296;98462;-72
2022/11/02 02:34:38;;;;;;;34.00;24.00;;;;;;;10.57;81.87;99215.14;85784;1290;23117;-73
2022/11/02 02:37:05;;;;;;;36.60;23.80;;;;;;;10.58;81.80;99214.40;85750;1292;24389;-73
2022/11/02 02:39:15;;;;;;;36.10;24.70;;;;;;;10.58;81.80;99214.06;85746;1290;99581;-72
2022/11/02 02:41:30;;;;;;;38.40;24.60;;;;;;;10.57;81.86;99213.55;86379;1290;24292;-73
2022/11/02 02:43:35;;;;;;;40.70;25.30;;;;;;;10.57;81.86;99217.25;85650;1300;99576;-73
2022/11/02 02:45:46;;;;;;;39.70;23.70;;;;;;;10.57;81.75;99223.05;85742;1289;22938;-74
2022/11/02 02:48:11;;;;;;;40.70;24.50;;;;;;;10.56;81.80;99225.02;85589;1296;22627;-73
2022/11/02 02:50:22;;;;;;;38.80;24.70;;;;;;;10.55;81.93;99227.01;85829;1291;98322;-73
2022/11/02 02:52:25;;;;;;;;;;;;;;;10.54;81.91;99231.29;85905;1291;23048;-73
2022/11/02 02:54:35;;;;;;;37.80;23.80;;;;;;;10.52;81.87;99234.18;85917;1291;23755;-72
2022/11/02 02:56:44;;;;;;;33.00;22.60;;;;;;;10.50;81.83;99230.02;85721;1290;99455;-73
2022/11/02 02:58:55;;;;;;;37.40;23.60;;;;;;;10.49;81.84;99235.17;85747;1289;26486;-73
2022/11/02 03:00:59;;;;;;;39.10;24.00;;;;;;;10.48;81.81;99236.29;85790;1294;22481;-73
2022/11/02 03:03:03;;;;;;;36.20;24.10;;;;;;;10.46;81.83;99240.42;85608;1297;99238;-73
2022/11/02 03:05:25;;;;;;;42.50;24.50;;;;;;;10.43;81.80;99239.29;85812;1293;24337;-74
2022/11/02 03:07:30;;;;;;;36.40;23.60;;;;;;;10.41;81.90;99237.98;85929;1294;99248;-73
2022/11/02 03:09:48;;;;;;;35.90;23.70;;;;;;;10.38;81.92;99244.77;85508;1286;26060;-73
2022/11/02 03:12:01;;;;;;;42.00;25.20;;;;;;;10.36;81.75;99250.98;85599;1294;22585;-73
2022/11/02 03:14:12;;;;;;;36.70;24.00;;;;;;;10.33;81.88;99245.66;85697;1299;99391;-73
2022/11/02 03:17:08;;;;;;;35.20;22.10;;;;;;;10.31;81.85;99250.14;85942;1291;22762;-74
2022/11/02 03:19:35;;;;;;;35.90;21.80;;;;;;;10.27;81.82;99249.11;85044;1299;23938;-73
2022/11/02 03:21:42;;;;;;;38.00;24.90;;;;;;;10.24;81.93;99248.16;85164;1299;22623;-73
2022/11/02 03:24:13;;;;;;;39.10;25.60;;;;;;;10.20;81.92;99247.61;85146;1299;23905;-72
2022/11/02 03:26:21;;;;;;;41.50;24.60;;;;;;;10.17;81.93;99244.42;85201;1296;99766;-74
2022/11/02 03:28:41;;;;;;;37.60;23.90;;;;;;;10.14;81.96;99241.20;85285;1299;22756;-74
2022/11/02 03:30:53;;;;;;;44.10;25.80;;;;;;;10.08;82.09;99241.09;85308;1291;25342;-74
2022/11/02 03:33:06;;;;;;;41.90;23.40;;;;;;;10.09;81.85;99246.86;85205;1292;99324;-73
2022/11/02 03:35:20;;;;;;;45.40;26.40;;;;;;;10.07;82.09;99245.03;85124;1299;22606;-74
2022/11/02 03:37:25;;;;;;;39.00;24.30;;;;;;;10.03;82.04;99247.77;85193;1298;25570;-73
2022/11/02 03:39:35;;;;;;;43.50;26.00;;;;;;;10.01;82.05;99249.45;85335;1296;24317;-73
2022/11/02 03:41:42;;;;;;;44.90;26.60;;;;;;;9.99;82.11;99250.25;85323;1295;27827;-73
2022/11/02 03:43:47;;;;;;;45.00;26.40;;;;;;;9.96;82.02;99254.93;85010;1299;101202;-73
2022/11/02 03:45:57;;;;;;;36.80;24.80;;;;;;;9.95;82.07;99252.90;85184;1300;22620;-73
2022/11/02 03:48:02;;;;;;;38.50;26.10;;;;;;;9.91;82.11;99250.91;85342;1297;25547;-73
2022/11/02 03:50:07;;;;;;;44.10;25.60;;;;;;;9.90;82.11;99254.33;85198;1296;99654;-73
2022/11/02 03:52:15;;;;;;;45.80;27.10;;;;;;;9.88;82.07;99253.34;85232;1298;24259;-73
2022/11/02 03:54:39;;;;;;;33.50;20.80;;;;;;;9.86;82.33;99258.67;85426;1297;22522;-73
2022/11/02 03:56:46;;;;;;;47.50;27.10;;;;;;;9.84;82.12;99256.13;85734;1286;99621;-73
2022/11/02 03:58:47;;;;;;;41.60;26.50;;;;;;;9.83;82.36;99256.37;85649;1300;22582;-73
2022/11/02 04:00:57;;;;;;;44.70;26.90;;;;;;;9.81;82.23;99256.95;85804;1289;25369;-74
2022/11/02 04:03:03;;;;;;;42.20;27.40;;;;;;;9.79;82.23;99260.54;85775;1291;99717;-73
2022/11/02 04:05:04;;;;;;;39.40;27.50;;;;;;;9.77;82.19;99260.27;86019;1286;23568;-74
2022/11/02 04:07:06;;;;;;;50.30;28.40;;;;;;;9.76;82.27;99260.49;85722;1289;26467;-73
2022/11/02 04:09:09;;;;;;;48.70;27.20;;;;;;;9.74;82.49;99259.86;85600;1292;99647;-74
2022/11/02 04:15:52;;;;;;;48.50;26.90;;;;;;;9.70;82.46;99262.81;85703;1287;22572;-74
2022/11/02 04:20:14;;;;;;;42.80;26.20;;;;;;;9.69;82.56;99264.06;85872;1292;99222;-73
2022/11/02 04:26:57;;;;;;;41.70;25.60;;;;;;;9.71;82.68;99267.34;85833;1291;99213;-73
2022/11/02 04:28:59;;;;;;;45.20;27.60;;;;;;;9.72;82.62;99269.77;85882;1287;22526;-73
2022/11/02 04:31:00;;;;;;;43.20;27.80;;;;;;;9.72;82.56;99270.30;85891;1291;22518;-73
2022/11/02 04:35:22;;;;;;;51.20;29.30;;;;;;;9.72;82.56;99269.06;85830;1285;22613;-74
2022/11/02 04:39:44;;;;;;;50.00;29.80;;;;;;;9.71;82.81;99273.49;85836;1293;25331;-74
2022/11/02 04:41:46;;;;;;;62.90;32.20;;;;;;;9.70;82.65;99281.41;85706;1290;22594;-73
2022/11/02 04:43:47;;;;;;;57.30;31.10;;;;;;;9.70;82.63;99280.91;85910;1291;100857;-74
2022/11/02 04:45:49;;;;;;;49.30;32.10;;;;;;;9.69;82.75;99281.30;85720;1294;23942;-73
2022/11/02 04:47:51;;;;;;;50.70;30.60;;;;;;;9.68;82.58;99281.67;85817;1283;22989;-73
2022/11/02 04:49:52;;;;;;;51.00;30.00;;;;;;;9.68;82.68;99282.40;85752;1291;99287;-73
2022/11/02 04:51:54;;;;;;;48.60;30.20;;;;;;;9.67;82.79;99285.05;85907;1290;22498;-73
2022/11/02 04:53:56;;;;;;;51.80;31.20;;;;;;;9.66;82.71;99281.75;85964;1296;22478;-74
2022/11/02 04:55:58;;;;;;;47.10;28.90;;;;;;;9.65;82.76;99282.16;85696;1297;101142;-74
2022/11/02 04:57:59;;;;;;;46.30;29.50;;;;;;;9.65;82.62;99283.74;86017;1296;22484;-73
2022/11/02 05:00:01;;;;;;;48.90;28.70;;;;;;;9.64;82.72;99278.34;85865;1290;22502;-74
2022/11/02 05:02:03;;;;;;;48.10;29.60;;;;;;;9.63;82.72;99281.88;85795;1290;99261;-74
2022/11/02 05:04:04;;;;;;;53.60;29.50;;;;;;;9.63;82.95;99276.10;85847;1286;22485;-74
2022/11/02 05:06:08;;;;;;;48.50;28.50;;;;;;;9.63;82.73;99278.72;85905;1290;24395;-74
2022/11/02 05:08:09;;;;;;;52.70;29.70;;;;;;;9.63;82.92;99278.89;85883;1293;98133;-73
2022/11/02 05:10:11;;;;;;;45.70;27.80;;;;;;;9.64;82.96;99281.50;85917;1291;22599;-73
2022/11/02 05:12:12;;;;;;;51.90;28.70;;;;;;;9.64;82.71;99282.19;85756;1290;24234;-73
2022/11/02 05:14:14;;;;;;;46.10;28.70;;;;;;;9.65;82.99;99286.55;85672;1293;99810;-73
2022/11/02 05:16:16;;;;;;;48.70;29.70;;;;;;;9.65;82.88;99284.79;86010;1298;22525;-73
2022/11/02 05:18:17;;;;;;;52.30;31.30;;;;;;;9.66;83.04;99283.16;85682;1292;24192;-73
2022/11/02 05:20:19;;;;;;;51.60;30.90;;;;;;;9.67;82.99;99286.98;85847;1307;99178;-72
2022/11/02 05:22:21;;;;;;;51.00;30.90;;;;;;;9.67;82.85;99286.48;85769;1299;23142;-72
2022/11/02 05:24:23;;;;;;;49.40;30.50;;;;;;;9.67;82.94;99292.07;85824;1299;22904;-73
2022/11/02 05:26:24;;;;;;;55.80;32.10;;;;;;;9.68;82.81;99295.89;85895;1297;98098;-73
2022/11/02 05:28:28;;;;;;;51.70;31.60;;;;;;;9.68;82.98;99296.58;85701;1300;22715;-73
2022/11/02 05:30:30;;;;;;;55.70;33.50;;;;;;;9.68;83.00;99295.36;85799;1300;26990;-73
2022/11/02 05:32:31;;;;;;;52.00;32.00;;;;;;;9.69;83.05;99294.44;85725;1302;99374;-73
2022/11/02 05:34:33;;;;;;;56.10;32.00;;;;;;;9.69;82.98;99295.84;85724;1292;22593;-75
2022/11/02 05:36:34;;;;;;;54.10;34.10;;;;;;;9.71;83.02;99291.39;85864;1299;25508;-75
2022/11/02 05:38:36;;;;;;;58.00;32.20;;;;;;;9.72;82.94;99297.15;85671;1294;100074;-75
2022/11/02 05:40:39;;;;;;;57.80;32.70;;;;;;;9.73;83.23;99299.92;85914;1300;22487;-76
2022/11/02 05:42:41;;;;;;;57.80;32.50;;;;;;;9.73;83.11;99301.33;85723;1300;22551;-75
2022/11/02 05:44:42;;;;;;;63.90;33.60;;;;;;;9.74;82.99;99304.63;85860;1290;98162;-75
2022/11/02 05:46:44;;;;;;;56.70;34.10;;;;;;;9.61;83.18;99285.65;85798;1293;22980;-75
2022/11/02 05:48:45;;;;;;;59.60;35.00;;;;;;;9.75;82.99;99303.89;85817;1292;25533;-75
2022/11/02 05:50:48;;;;;;;61.20;35.70;;;;;;;9.75;82.96;99304.40;85866;1300;99365;-75
2022/11/02 05:52:49;;;;;;;60.40;31.90;;;;;;;9.76;83.12;99305.08;85940;1292;23434;-75
2022/11/02 05:54:51;;;;;;;57.50;34.20;;;;;;;9.77;83.14;99307.85;85730;1299;23328;-75
2022/11/02 05:56:52;;;;;;;59.80;35.00;;;;;;;9.78;83.17;99310.45;85805;1310;99042;-75
2022/11/02 05:58:57;;;;;;;50.20;30.80;;;;;;;9.80;83.12;99309.65;85964;1292;23675;-76
2022/11/02 06:01:00;;;;;;;64.90;34.50;;;;;;;9.79;83.24;99307.05;85941;1290;24287;-76
2022/11/02 06:03:01;;;;;;;60.50;33.80;;;;;;;9.82;83.32;99311.30;85649;1285;99079;-75
2022/11/02 06:05:03;;;;;;;58.00;34.70;;;;;;;9.85;83.23;99312.94;85720;1285;24452;-75
2022/11/02 06:07:05;;;;;;;61.30;35.20;;;;;;;9.86;83.30;99312.71;85689;1292;22536;-76
2022/11/02 06:09:07;;;;;;;62.40;34.60;;;;;;;9.88;83.11;99312.31;85671;1291;99180;-73
2022/11/02 06:11:11;;;;;;;61.70;35.00;;;;;;;9.90;83.19;99311.36;85767;1291;22547;-76
2022/11/02 06:13:12;;;;;;;55.90;33.10;;;;;;;9.92;83.16;99313.21;85777;1289;24264;-76
2022/11/02 06:15:14;;;;;;;61.60;35.10;;;;;;;9.93;83.21;99313.50;85834;1283;98405;-76
2022/11/02 06:17:17;;;;;;;58.30;32.80;;;;;;;9.95;83.34;99313.41;85827;1292;22505;-76
2022/11/02 06:19:18;;;;;;;64.30;38.80;;;;;;;9.98;83.31;99320.17;86050;1283;24258;-76
2022/11/02 06:21:20;;;;;;;62.20;35.60;;;;;;;9.99;83.26;99322.41;85973;1285;99324;-76
2022/11/02 06:23:22;;;;;;;54.40;33.30;;;;;;;10.00;83.36;99324.48;85957;1286;24255;-76
2022/11/02 06:25:23;;;;;;;61.40;34.80;;;;;;;10.01;83.43;99326.20;85988;1283;23547;-76
2022/11/02 06:27:25;;;;;;;55.90;33.40;;;;;;;10.02;83.24;99327.55;85749;1286;99372;-76
2022/11/02 06:29:27;;;;;;;64.00;34.30;;;;;;;9.95;83.23;99316.40;85906;1283;22515;-75
2022/11/02 06:31:28;;;;;;;64.40;35.00;;;;;;;10.05;83.25;99332.88;85871;1293;23008;-76
2022/11/02 06:33:30;;;;;;;53.90;33.70;;;;;;;10.06;83.26;99329.68;85799;1286;98465;-75
2022/11/02 06:35:32;;;;;;;57.00;34.30;;;;;;;10.07;83.16;99330.73;85926;1293;22899;-76
2022/11/02 06:37:34;;;;;;;62.60;34.10;;;;;;;10.07;83.33;99329.48;85873;1290;25934;-74
2022/11/02 06:39:35;;;;;;;58.00;33.90;;;;;;;10.08;83.40;99329.97;85966;1283;25330;-75
2022/11/02 06:41:37;;;;;;;64.80;35.20;;;;;;;10.08;83.37;99331.00;85997;1283;22514;-75
2022/11/02 06:43:39;;;;;;;70.60;36.30;;;;;;;10.09;83.38;99333.41;85907;1283;99051;-75
2022/11/02 06:45:41;;;;;;;67.00;35.30;;;;;;;10.10;83.32;99332.34;86016;1289;25255;-75
2022/11/02 06:47:43;;;;;;;64.20;35.80;;;;;;;10.12;83.33;99335.26;86039;1283;22479;-75
2022/11/02 06:49:44;;;;;;;68.00;36.00;;;;;;;10.13;83.40;99335.21;85558;1293;99425;-75
2022/11/02 06:51:49;;;;;;;71.80;37.60;;;;;;;10.13;83.27;99333.42;86244;1293;22710;-74
2022/11/02 06:53:51;;;;;;;73.00;36.30;;;;;;;10.13;83.37;99335.70;85796;1291;22533;-75
2022/11/02 06:55:54;;;;;;;67.90;37.40;;;;;;;10.12;83.27;99334.20;85798;1296;99854;-74
2022/11/02 06:57:56;;;;;;;59.30;35.10;;;;;;;10.11;83.31;99333.70;86039;1283;22494;-75
2022/11/02 07:00:03;;;;;;;66.60;36.00;;;;;;;10.10;83.35;99340.41;86000;1291;22589;-75
2022/11/02 07:02:05;;;;;;;61.80;36.10;;;;;;;10.10;83.40;99341.30;86174;1291;99160;-75
2022/11/02 07:04:07;;;;;;;66.40;36.10;;;;;;;10.10;83.47;99344.09;85792;1292;23243;-74
2022/11/02 07:06:08;;;;;;;70.20;38.70;;;;;;;10.11;83.36;99341.06;85945;1283;22623;-74
2022/11/02 07:08:10;;;;;;;67.60;39.00;;;;;;;10.12;83.37;99335.75;85828;1291;98342;-75
2022/11/02 07:10:12;;;;;;;75.10;38.80;;;;;;;10.14;83.40;99340.27;85752;1292;25552;-75
2022/11/02 07:12:13;;;;;;;64.70;38.50;;;;;;;10.15;83.47;99337.75;85974;1283;22618;-75
2022/11/02 07:14:15;;;;;;;73.70;40.50;;;;;;;10.17;83.46;99337.68;85807;1300;100387;-75
2022/11/02 07:16:17;;;;;;;69.40;39.50;;;;;;;10.17;83.43;99335.70;85962;1291;26501;-75
2022/11/02 07:18:18;;;;;;;81.00;40.40;;;;;;;10.20;83.50;99334.20;86039;1294;22507;-74
2022/11/02 07:20:20;;;;;;;74.10;40.20;;;;;;;10.23;83.52;99334.77;85857;1284;98130;-74
2022/11/02 07:22:22;;;;;;;70.70;39.90;;;;;;;10.27;83.53;99334.98;85838;1286;22497;-76
2022/11/02 07:24:24;;;;;;;70.90;38.40;;;;;;;10.29;83.58;99331.90;86047;1290;22534;-76
2022/11/02 07:26:26;;;;;;;71.20;41.10;;;;;;;10.31;83.54;99327.60;85836;1294;99849;-76
2022/11/02 07:28:27;;;;;;;78.20;42.60;;;;;;;10.33;83.60;99327.89;85919;1284;23502;-75
2022/11/02 07:30:31;;;;;;;71.90;39.60;;;;;;;10.37;83.48;99321.61;86195;1290;22651;-75
2022/11/02 07:32:43;;;;;;;77.20;40.60;;;;;;;10.41;83.57;99323.91;86226;1287;99660;-75
2022/11/02 07:34:45;;;;;;;71.40;40.30;;;;;;;10.45;83.59;99327.56;86001;1285;25465;-75
2022/11/02 07:36:46;;;;;;;69.90;38.80;;;;;;;10.50;83.62;99327.88;86013;1284;22881;-75
2022/11/02 07:38:48;;;;;;;77.50;39.90;;;;;;;10.57;83.59;99328.86;85745;1289;99418;-75
2022/11/02 07:40:50;;;;;;;74.90;39.80;;;;;;;10.60;83.57;99323.09;85950;1291;25498;-75
2022/11/02 07:42:52;;;;;;;78.80;40.70;;;;;;;10.67;83.55;99324.55;86090;1284;175736;-75
2022/11/02 07:44:54;;;;;;;72.30;38.60;;;;;;;10.72;83.53;99318.02;86048;1284;99038;-75
2022/11/02 07:46:57;;;;;;;68.40;37.60;;;;;;;10.79;83.56;99322.30;85933;1286;23906;-74
2022/11/02 07:48:58;;;;;;;74.60;39.30;;;;;;;10.85;83.55;99317.98;85951;1284;25315;-75
2022/11/02 07:51:00;;;;;;;65.20;38.20;;;;;;;10.94;83.54;99323.75;85716;1290;99940;-75
2022/11/02 07:53:02;;;;;;;69.10;37.60;;;;;;;11.00;83.48;99323.10;85904;1292;22562;-74
2022/11/02 07:55:04;;;;;;;71.10;37.70;;;;;;;11.06;83.46;99323.90;86026;1285;22509;-74
2022/11/02 07:57:05;;;;;;;66.80;38.70;;;;;;;11.13;83.48;99328.34;85687;1294;99313;-74
2022/11/02 07:59:09;;;;;;;66.00;37.50;;;;;;;11.21;83.44;99328.17;85809;1286;24246;-74
2022/11/02 08:01:11;;;;;;;59.70;36.90;;;;;;;11.29;83.36;99330.10;85837;1287;25286;-74
2022/11/02 08:03:13;;;;;;;67.90;36.10;;;;;;;11.38;83.31;99327.02;85499;1296;99899;-76
2022/11/02 08:05:15;;;;;;;64.40;34.10;;;;;;;11.47;83.27;99327.66;86038;1284;22509;-76
2022/11/02 08:07:17;;;;;;;59.20;33.50;;;;;;;11.56;83.36;99327.09;85882;1286;22989;-75
2022/11/02 08:09:19;;;;;;;61.50;34.60;;;;;;;11.68;83.29;99322.68;86111;1293;99263;-75
2022/11/02 08:11:40;;;;;;;55.90;32.60;;;;;;;11.82;83.27;99325.55;86051;1293;22534;-74
2022/11/02 08:13:42;;;;;;;59.10;32.70;;;;;;;11.92;83.06;99327.17;86124;1291;99707;-74
2022/11/02 08:15:44;;;;;;;56.20;32.50;;;;;;;11.97;83.08;99321.13;86213;1286;22525;-75
2022/11/02 08:17:46;;;;;;;59.80;33.70;;;;;;;12.06;82.98;99324.89;86266;1293;22542;-76
2022/11/02 08:19:47;;;;;;;59.10;32.90;;;;;;;12.13;82.81;99324.05;85848;1286;98804;-75
2022/11/02 08:21:50;;;;;;;59.80;33.90;;;;;;;12.22;82.86;99323.80;86379;1290;22555;-74
2022/11/02 08:23:52;;;;;;;62.50;32.60;;;;;;;12.29;82.90;99319.62;86263;1283;25340;-74
2022/11/02 08:25:58;;;;;;;58.60;30.50;;;;;;;12.35;82.74;99317.52;86201;1293;99179;-77
2022/11/02 08:28:01;;;;;;;66.50;31.10;;;;;;;12.43;82.86;99319.59;86022;1284;22508;-72
2022/11/02 08:30:03;;;;;;;56.50;29.30;;;;;;;12.53;82.73;99319.46;85679;1292;23778;-72
2022/11/02 08:32:04;;;;;;;54.40;29.20;;;;;;;12.64;82.62;99316.25;85822;1283;99419;-73
2022/11/02 08:34:06;;;;;;;56.30;28.10;;;;;;;12.74;82.59;99318.00;85765;1286;22582;-73
2022/11/02 08:36:08;;;;;;;51.20;27.80;;;;;;;12.88;82.62;99320.66;86162;1290;26501;-72
2022/11/02 08:38:10;;;;;;;51.10;28.10;;;;;;;13.04;82.54;99319.64;85886;1291;99075;-74
2022/11/02 08:40:12;;;;;;;41.90;26.40;;;;;;;13.14;82.27;99318.23;86089;1284;22572;-74
2022/11/02 08:42:14;;;;;;;39.50;25.50;;;;;;;13.24;82.36;99316.64;86060;1284;22526;-73
2022/11/02 08:44:15;;;;;;;43.60;25.30;;;;;;;13.35;82.26;99317.66;86053;1287;99375;-73
2022/11/02 08:46:17;;;;;;;46.10;26.00;;;;;;;13.46;82.14;99315.86;85959;1287;23219;-73
2022/11/02 08:48:19;;;;;;;51.80;26.80;;;;;;;13.57;81.97;99311.34;85939;1283;22492;-73
2022/11/02 08:50:22;;;;;;;49.30;27.50;;;;;;;13.67;82.00;99312.95;85927;1289;99385;-73
2022/11/02 08:52:24;;;;;;;52.70;28.10;;;;;;;13.72;81.98;99304.14;85876;1284;24147;-73
2022/11/02 08:54:25;;;;;;;48.00;26.30;;;;;;;13.74;81.67;99303.69;86019;1289;22513;-72
2022/11/02 08:56:27;;;;;;;45.00;25.50;;;;;;;13.78;81.56;99302.27;85891;1296;99244;-74
2022/11/02 08:58:29;;;;;;;51.40;27.20;;;;;;;13.79;81.47;99303.95;85730;1293;22707;-73
2022/11/02 09:00:32;;;;;;;42.70;26.40;;;;;;;13.85;81.50;99303.83;85927;1291;23081;-73
2022/11/02 09:02:34;;;;;;;47.50;25.80;;;;;;;13.90;81.41;99306.36;85875;1290;98230;-74
2022/11/02 09:04:36;;;;;;;42.50;24.70;;;;;;;13.93;81.41;99307.40;85874;1293;22545;-74
2022/11/02 09:06:37;;;;;;;44.00;25.50;;;;;;;13.95;81.06;99308.89;85746;1299;25421;-74
2022/11/02 09:08:39;;;;;;;38.40;24.60;;;;;;;13.97;81.16;99303.14;85865;1292;99710;-72
2022/11/02 09:10:41;;;;;;;43.60;25.10;;;;;;;14.00;81.02;99303.29;85779;1292;22606;-74
2022/11/02 09:12:43;;;;;;;49.10;24.40;;;;;;;14.06;81.08;99304.39;85957;1291;22610;-75
2022/11/02 09:14:45;;;;;;;42.40;26.30;;;;;;;14.09;81.13;99302.42;85734;1293;99304;-72
2022/11/02 09:16:46;;;;;;;55.20;27.60;;;;;;;14.10;80.93;99306.78;85944;1283;22501;-74
2022/11/02 09:18:48;;;;;;;47.50;25.10;;;;;;;14.11;80.85;99306.40;85996;1289;23819;-73
2022/11/02 09:20:50;;;;;;;46.80;25.60;;;;;;;14.09;80.70;99302.23;85868;1291;99262;-72
2022/11/02 09:22:52;;;;;;;46.90;24.60;;;;;;;14.08;80.63;99301.29;85998;1283;22526;-72
2022/11/02 09:24:54;;;;;;;63.10;26.50;;;;;;;14.06;80.72;99298.90;85925;1299;24375;-74
2022/11/02 09:26:56;;;;;;;49.50;24.40;;;;;;;14.03;80.49;99295.89;85699;1293;99524;-73
2022/11/02 09:28:58;;;;;;;48.70;23.20;;;;;;;14.03;80.76;99296.95;85830;1294;22581;-74
2022/11/02 09:30:59;;;;;;;39.00;21.50;;;;;;;14.08;81.02;99295.05;86029;1300;22530;-74
2022/11/02 09:33:04;;;;;;;44.60;21.40;;;;;;;14.17;80.80;99294.05;86083;1293;99534;-73
2022/11/02 09:35:09;;;;;;;35.80;21.60;;;;;;;14.25;80.75;99289.71;85860;1293;24310;-74
2022/11/02 09:37:11;;;;;;;36.90;19.50;;;;;;;14.34;80.59;99294.13;86004;1289;22554;-72
2022/11/02 09:39:13;;;;;;;32.60;19.60;;;;;;;14.44;80.52;99291.77;85609;1292;99436;-73
2022/11/02 09:41:35;;;;;;;30.60;17.70;;;;;;;14.54;80.44;99292.80;85955;1291;22495;-75
2022/11/02 09:43:55;;;;;;;32.20;17.60;;;;;;;14.66;80.47;99289.62;86367;1291;24412;-75
2022/11/02 09:46:17;;;;;;;38.70;18.20;;;;;;;14.84;80.44;99286.20;86012;1290;24375;-72
2022/11/02 09:48:40;;;;;;;25.00;15.70;;;;;;;15.10;80.09;99286.26;86029;1291;25922;-73
2022/11/02 09:50:51;;;;;;;35.80;14.60;;;;;;;15.34;79.59;99287.19;85843;1287;99528;-73